createdAt,value
2019-01-04T00:00:02.799Z,32.17
2019-01-04T00:03:15.300Z,31.10
2019-01-04T00:05:55.504Z,34.60
2019-01-04T00:08:51.603Z,32.90
2019-01-04T00:11:33.497Z,30.40
2019-01-04T00:14:40.915Z,22.43
2019-01-04T00:21:30.477Z,14.73
2019-01-04T00:24:27.746Z,14.58
2019-01-04T00:27:06.152Z,13.23
2019-01-04T00:29:51.581Z,13.80
2019-01-04T00:32:31.586Z,11.73
2019-01-04T00:35:07.162Z,13.55
2019-01-04T00:37:38.430Z,16.50
2019-01-04T00:40:27.166Z,16.77
2019-01-04T00:42:58.866Z,14.60
2019-01-04T00:45:33.007Z,14.97
2019-01-04T00:48:07.578Z,21.53
2019-01-04T00:50:39.474Z,19.10
2019-01-04T00:53:21.928Z,20.60
2019-01-04T00:56:20.043Z,22.87
2019-01-04T01:00:02.835Z,25.27
2019-01-04T01:03:18.326Z,26.97
2019-01-04T01:06:41.230Z,27.97
2019-01-04T01:10:14.583Z,30.20
2019-01-04T01:13:26.598Z,27.60
2019-01-04T01:16:34.886Z,30.10
2019-01-04T01:20:00.131Z,31.90
2019-01-04T01:23:13.680Z,35.33
2019-01-04T01:26:21.207Z,32.93
2019-01-04T01:29:27.872Z,32.80
2019-01-04T01:32:32.078Z,32.40
2019-01-04T01:35:45.070Z,30.60
2019-01-04T01:38:56.411Z,29.83
2019-01-04T01:42:11.861Z,32.80
2019-01-04T01:45:25.430Z,30.43
2019-01-04T01:48:19.103Z,33.47
2019-01-04T01:54:35.500Z,25.77
2019-01-04T01:57:07.146Z,27.17
2019-01-04T01:59:43.155Z,29.00
2019-01-04T02:02:25.831Z,24.35
2019-01-04T02:05:02.266Z,24.03
2019-01-04T02:07:32.709Z,30.60
2019-01-04T02:10:13.059Z,22.95
2019-01-04T02:12:53.890Z,27.73
2019-01-04T02:15:26.991Z,24.97
2019-01-04T02:18:05.631Z,26.20
2019-01-04T02:20:34.497Z,25.50
2019-01-04T02:23:05.728Z,28.40
2019-01-04T02:25:45.952Z,25.03
2019-01-04T02:28:22.795Z,23.40
2019-01-04T02:31:02.786Z,26.70
2019-01-04T02:33:35.456Z,26.93
2019-01-04T02:36:06.205Z,24.20
2019-01-04T02:38:37.922Z,33.03
2019-01-04T02:41:09.180Z,25.43
2019-01-04T02:43:47.322Z,26.50
2019-01-04T02:46:26.082Z,24.43
2019-01-04T02:49:00.885Z,25.00
2019-01-04T02:51:31.773Z,26.03
2019-01-04T02:54:09.232Z,24.00
2019-01-04T02:56:39.828Z,21.37
2019-01-04T02:59:12.338Z,24.07
2019-01-04T03:01:43.574Z,25.97
2019-01-04T03:04:18.790Z,23.57
2019-01-04T03:06:49.021Z,25.37
2019-01-04T03:09:27.331Z,23.80
2019-01-04T03:12:08.075Z,25.50
2019-01-04T03:14:41.029Z,26.07
2019-01-04T03:17:12.943Z,32.73
2019-01-04T03:19:47.815Z,28.00
2019-01-04T03:22:26.493Z,23.50
2019-01-04T03:24:59.357Z,22.33
2019-01-04T03:27:30.949Z,20.40
2019-01-04T03:30:01.901Z,23.27
2019-01-04T03:32:32.966Z,20.70
2019-01-04T03:35:06.688Z,22.23
2019-01-04T03:37:38.020Z,23.07
2019-01-04T03:40:09.357Z,26.50
2019-01-04T03:42:40.405Z,22.13
2019-01-04T03:45:11.816Z,22.70
2019-01-04T03:47:53.526Z,24.37
2019-01-04T03:50:25.184Z,22.63
2019-01-04T03:52:56.195Z,21.20
2019-01-04T03:55:32.360Z,24.77
2019-01-04T03:58:03.903Z,19.13
2019-01-04T04:00:34.111Z,21.77
2019-01-04T04:03:10.024Z,21.03
2019-01-04T04:05:47.633Z,23.50
2019-01-04T04:08:21.062Z,25.27
2019-01-04T04:10:53.304Z,25.47
2019-01-04T04:13:32.891Z,23.12
2019-01-04T04:16:08.315Z,26.23
2019-01-04T04:18:40.538Z,26.10
2019-01-04T04:21:10.719Z,26.37
2019-01-04T04:23:43.569Z,24.17
2019-01-04T04:26:14.747Z,25.70
2019-01-04T04:28:50.065Z,22.83
2019-01-04T04:31:18.970Z,25.60
2019-01-04T04:33:49.659Z,27.20
2019-01-04T04:36:22.790Z,26.13
2019-01-04T04:39:05.803Z,29.60
2019-01-04T04:41:48.378Z,33.53
2019-01-04T04:44:22.656Z,22.07
2019-01-04T04:47:01.266Z,25.53
2019-01-04T04:49:37.810Z,26.30
2019-01-04T04:52:07.664Z,28.00
2019-01-04T04:54:43.955Z,25.97
2019-01-04T04:57:14.389Z,33.00
2019-01-04T04:59:57.435Z,24.73
2019-01-04T05:03:16.224Z,26.73
2019-01-04T05:05:47.163Z,30.90
2019-01-04T05:08:23.231Z,30.93
2019-01-04T05:11:05.825Z,28.27
2019-01-04T05:13:43.951Z,28.83
2019-01-04T05:16:52.820Z,25.20
2019-01-04T05:19:34.734Z,26.13
2019-01-04T05:22:19.299Z,29.83
2019-01-04T05:24:48.004Z,23.27
2019-01-04T05:27:38.972Z,23.87
2019-01-04T05:30:09.207Z,25.20
2019-01-04T05:32:44.623Z,26.00
2019-01-04T05:35:16.096Z,26.80
2019-01-04T05:38:06.463Z,29.90
2019-01-04T05:40:47.448Z,29.33
2019-01-04T05:43:25.388Z,27.50
2019-01-04T05:48:59.269Z,22.37
2019-01-04T05:51:29.905Z,27.63
2019-01-04T05:53:59.807Z,24.10
2019-01-04T05:56:31.750Z,25.53
2019-01-04T05:59:05.603Z,23.10
2019-01-04T06:01:38.100Z,23.50
2019-01-04T06:04:12.038Z,25.93
2019-01-04T06:06:54.444Z,20.53
2019-01-04T06:09:38.526Z,26.20
2019-01-04T06:12:10.769Z,22.90
2019-01-04T06:14:43.851Z,30.30
2019-01-04T06:17:14.711Z,23.53
2019-01-04T06:19:50.117Z,22.10
2019-01-04T06:22:21.696Z,28.23
2019-01-04T06:24:54.293Z,21.20
2019-01-04T06:27:34.916Z,25.17
2019-01-04T06:30:26.690Z,20.00
2019-01-04T06:33:01.848Z,29.10
2019-01-04T06:35:37.381Z,25.33
2019-01-04T06:38:09.256Z,24.45
2019-01-04T06:40:40.010Z,25.90
2019-01-04T06:43:25.922Z,22.20
2019-01-04T06:46:15.503Z,20.83
2019-01-04T07:00:24.489Z,28.90
2019-01-04T07:03:05.262Z,28.93
2019-01-04T07:05:36.459Z,28.83
2019-01-04T07:08:06.533Z,25.47
2019-01-04T07:10:37.071Z,30.97
2019-01-04T07:13:07.232Z,25.83
2019-01-04T07:15:39.199Z,24.07
2019-01-04T07:18:09.542Z,24.27
2019-01-04T07:45:47.943Z,24.70
2019-01-04T07:48:19.032Z,21.50
2019-01-04T07:50:50.734Z,24.23
2019-01-04T07:53:23.651Z,22.67
2019-01-04T07:55:55.757Z,25.10
2019-01-04T07:58:25.713Z,25.13
2019-01-04T08:00:55.345Z,25.07
2019-01-04T08:03:26.770Z,19.47
2019-01-04T08:05:59.384Z,19.53
2019-01-04T08:08:29.306Z,20.93
2019-01-04T08:10:59.098Z,25.43
2019-01-04T08:13:30.244Z,27.10
2019-01-04T08:16:00.023Z,33.60
2019-01-04T08:18:29.858Z,24.13
2019-01-04T08:21:00.372Z,27.73
2019-01-04T08:23:32.379Z,32.67
2019-01-04T08:36:30.120Z,23.40
2019-01-04T08:39:02.049Z,34.55
2019-01-04T08:41:36.543Z,31.63
2019-01-04T08:44:09.076Z,31.67
2019-01-04T08:46:40.269Z,20.47
2019-01-04T08:49:18.049Z,25.57
2019-01-04T08:51:57.246Z,27.47
2019-01-04T08:54:28.458Z,23.73
2019-01-04T08:57:09.960Z,27.87
2019-01-04T08:59:40.218Z,21.40
2019-01-04T09:02:10.577Z,27.27
2019-01-04T09:04:47.223Z,25.93
2019-01-04T09:07:17.855Z,22.10
2019-01-04T09:09:47.923Z,31.55
2019-01-04T09:12:21.967Z,28.27
2019-01-04T09:14:52.700Z,27.00
2019-01-04T09:17:32.292Z,30.70
2019-01-04T09:20:08.054Z,25.60
2019-01-04T09:22:38.747Z,28.87
2019-01-04T09:25:10.346Z,36.90
2019-01-04T09:27:41.057Z,26.40
2019-01-04T09:30:13.526Z,28.97
2019-01-04T09:32:43.845Z,32.40
2019-01-04T09:35:15.375Z,35.90
2019-01-04T09:37:46.811Z,28.52
2019-01-04T09:40:18.688Z,34.13
2019-01-04T09:42:54.393Z,28.90
2019-01-04T09:45:35.275Z,32.03
2019-01-04T09:48:05.540Z,23.13
2019-01-04T09:50:42.301Z,27.63
2019-01-04T09:53:12.975Z,29.07
2019-01-04T09:55:47.328Z,25.30
2019-01-04T09:58:23.855Z,31.33
2019-01-04T10:00:57.627Z,24.95
2019-01-04T10:03:32.570Z,25.30
2019-01-04T10:06:07.942Z,25.13
2019-01-04T10:08:47.793Z,25.77
2019-01-04T10:11:29.089Z,24.53
2019-01-04T10:14:08.500Z,17.73
2019-01-04T10:16:53.639Z,23.40
2019-01-04T10:19:34.095Z,22.90
2019-01-04T10:22:04.852Z,23.20
2019-01-04T10:24:35.999Z,17.73
2019-01-04T10:27:06.560Z,20.73
2019-01-04T10:29:44.369Z,18.07
2019-01-04T10:32:18.939Z,19.35
2019-01-04T10:34:56.797Z,22.10
2019-01-04T10:37:27.670Z,29.67
2019-01-04T10:40:01.664Z,22.40
2019-01-04T10:42:32.249Z,17.03
2019-01-04T10:45:03.267Z,16.37
2019-01-04T10:47:33.042Z,19.43
2019-01-04T10:50:04.069Z,17.77
2019-01-04T10:52:36.044Z,20.23
2019-01-04T10:55:06.174Z,18.63
2019-01-04T10:57:37.248Z,18.47
2019-01-04T11:00:09.382Z,20.60
2019-01-04T11:02:40.282Z,20.50
2019-01-04T11:05:09.984Z,23.53
2019-01-04T11:07:42.608Z,17.93
2019-01-04T11:10:16.315Z,20.90
2019-01-04T11:12:47.067Z,15.38
2019-01-04T11:15:17.927Z,17.40
2019-01-04T11:17:54.984Z,20.23
2019-01-04T11:20:45.215Z,19.03
2019-01-04T11:23:59.591Z,19.40
2019-01-04T11:26:57.137Z,23.97
2019-01-04T11:30:13.966Z,24.00
2019-01-04T11:33:24.763Z,25.10
2019-01-04T11:36:40.650Z,22.00
2019-01-04T11:39:37.663Z,18.63
2019-01-04T11:42:34.359Z,19.50
2019-01-04T11:46:05.914Z,18.00
2019-01-04T11:49:05.391Z,19.00
2019-01-04T12:00:57.045Z,18.07
2019-01-04T12:32:07.903Z,22.10
2019-01-04T12:39:38.758Z,18.70
2019-01-04T13:41:49.899Z,18.93
2019-01-04T13:48:58.460Z,18.03
2019-01-04T13:56:12.725Z,17.40
2019-01-04T14:03:00.832Z,16.53
2019-01-04T14:05:32.187Z,16.80
2019-01-04T14:08:02.939Z,16.47
2019-01-04T14:10:33.634Z,15.87
2019-01-04T14:13:09.372Z,17.10
2019-01-04T14:15:38.371Z,15.23
2019-01-04T14:18:08.581Z,12.90
2019-01-04T14:20:39.335Z,17.60
2019-01-04T14:23:10.579Z,13.97
2019-01-04T14:25:41.888Z,15.23
2019-01-04T14:28:11.862Z,20.10
2019-01-04T14:30:41.944Z,19.43
2019-01-04T14:33:12.457Z,17.07
2019-01-04T14:35:42.444Z,15.87
2019-01-04T14:38:13.652Z,13.50
2019-01-04T14:40:43.227Z,17.77
2019-01-04T14:43:13.769Z,16.07
2019-01-04T14:45:44.440Z,18.83
2019-01-04T14:48:15.467Z,14.73
2019-01-04T14:50:45.679Z,22.10
2019-01-04T14:53:15.653Z,17.97
2019-01-04T14:55:46.205Z,16.67
2019-01-04T14:58:17.884Z,17.77
2019-01-04T15:00:49.880Z,19.70
2019-01-04T15:03:21.687Z,16.70
2019-01-04T15:05:55.747Z,17.53
2019-01-04T15:08:27.631Z,17.67
2019-01-04T15:10:59.464Z,18.70
2019-01-04T15:13:29.858Z,18.97
2019-01-04T15:15:59.808Z,14.13
2019-01-04T15:18:32.691Z,16.40
2019-01-04T15:21:02.744Z,16.10
2019-01-04T15:23:32.935Z,17.97
2019-01-04T15:26:02.549Z,19.20
2019-01-04T15:28:32.291Z,20.30
2019-01-04T15:31:01.796Z,22.50
2019-01-04T15:33:32.300Z,19.93
2019-01-04T15:36:02.775Z,21.90
2019-01-04T15:38:36.405Z,21.90
2019-01-04T15:41:04.840Z,23.90
2019-01-04T15:43:35.636Z,24.03
2019-01-04T15:46:05.700Z,24.23
2019-01-04T15:48:35.580Z,27.23
2019-01-04T15:51:05.258Z,21.33
2019-01-04T15:53:35.534Z,25.70
2019-01-04T15:56:05.286Z,25.47
2019-01-04T15:58:35.617Z,24.93
2019-01-04T16:01:05.305Z,23.57
2019-01-04T16:03:35.549Z,24.40
2019-01-04T16:06:04.974Z,23.07
2019-01-04T16:08:35.440Z,22.30
2019-01-04T16:11:05.947Z,22.57
2019-01-04T16:13:35.952Z,25.37
2019-01-04T16:16:05.830Z,21.70
2019-01-04T16:18:35.825Z,28.07
2019-01-04T16:21:05.294Z,26.27
2019-01-04T16:23:35.176Z,29.20
2019-01-04T16:26:05.259Z,39.97
2019-01-04T16:28:35.588Z,36.13
2019-01-04T16:31:05.026Z,33.92
2019-01-04T16:33:34.578Z,40.10
2019-01-04T16:36:04.810Z,37.90
2019-01-04T16:38:35.311Z,48.63
2019-01-04T16:41:05.250Z,41.45
2019-01-04T16:53:35.348Z,31.70
2019-01-04T16:56:13.174Z,31.70
2019-01-04T16:58:42.750Z,29.53
2019-01-04T17:01:12.986Z,27.10
2019-01-04T17:03:42.850Z,24.23
2019-01-04T17:06:13.635Z,22.83
2019-01-04T17:08:44.149Z,21.40
2019-01-04T17:11:14.420Z,22.53
2019-01-04T17:17:30.110Z,19.90
2019-01-04T17:20:00.494Z,17.03
2019-01-04T17:25:29.844Z,20.83
2019-01-04T17:27:59.619Z,17.00
2019-01-04T17:30:29.888Z,16.90
2019-01-04T17:33:00.264Z,18.53
2019-01-04T17:35:30.155Z,17.92
2019-01-04T17:38:00.428Z,17.83
2019-01-04T17:40:40.991Z,18.27
2019-01-04T17:43:11.757Z,21.93
2019-01-04T18:20:52.136Z,14.00
2019-01-04T18:23:23.517Z,15.80
2019-01-04T18:25:57.062Z,14.80
2019-01-04T18:28:27.191Z,17.33
2019-01-04T18:31:01.910Z,15.13
2019-01-04T18:33:38.571Z,18.23
2019-01-04T18:36:10.692Z,18.10
2019-01-04T18:38:42.105Z,19.17
2019-01-04T18:41:22.980Z,26.60
2019-01-04T18:47:44.287Z,24.60
2019-01-04T18:50:24.837Z,26.50
2019-01-04T18:53:08.503Z,22.97
2019-01-04T18:59:12.493Z,22.40
2019-01-04T19:01:59.875Z,20.67
2019-01-04T19:04:30.494Z,22.27
2019-01-04T19:07:01.550Z,20.10
2019-01-04T19:09:32.927Z,21.03
2019-01-04T19:12:03.471Z,22.00
2019-01-04T19:18:18.657Z,20.92
2019-01-04T19:24:13.250Z,23.80
2019-01-04T19:26:43.942Z,20.07
2019-01-04T19:29:18.980Z,20.93
2019-01-04T19:32:00.617Z,24.53
2019-01-04T19:34:37.264Z,22.67
2019-01-04T19:37:12.865Z,24.97
2019-01-04T19:39:53.071Z,24.20
2019-01-04T19:42:27.340Z,24.80
2019-01-04T19:44:58.742Z,26.77
2019-01-04T19:52:18.381Z,23.73
2019-01-04T19:55:20.647Z,26.00
2019-01-04T20:02:52.413Z,21.90
2019-01-04T20:07:10.232Z,25.67
2019-01-04T20:14:24.219Z,24.77
2019-01-04T20:18:11.436Z,24.03
2019-01-04T20:21:30.144Z,27.07
2019-01-04T20:25:04.523Z,25.17
2019-01-04T20:29:36.013Z,21.57
2019-01-04T20:39:18.487Z,18.77
2019-01-04T20:43:05.299Z,19.33
2019-01-04T21:15:49.778Z,17.90
2019-01-04T21:19:02.295Z,19.37
2019-01-04T21:22:50.237Z,17.50
2019-01-04T21:25:43.609Z,22.73
2019-01-04T21:28:35.386Z,21.10
2019-01-04T21:39:49.565Z,18.80
2019-01-04T21:47:17.912Z,17.70
2019-01-04T21:57:13.811Z,20.67
2019-01-04T22:00:15.650Z,15.07
2019-01-04T22:07:20.194Z,16.83
2019-01-04T22:24:44.527Z,20.87
2019-01-04T22:30:40.349Z,18.53
2019-01-04T22:41:49.107Z,17.97
2019-01-04T22:45:33.074Z,16.70
2019-01-04T22:56:13.406Z,19.47
2019-01-04T22:59:20.939Z,19.27
2019-01-04T23:02:14.315Z,16.80
2019-01-04T23:05:03.278Z,17.40
2019-01-04T23:07:54.783Z,18.57
2019-01-04T23:10:48.689Z,16.73
2019-01-04T23:13:38.782Z,15.40
2019-01-04T23:16:32.178Z,17.07
2019-01-04T23:19:33.297Z,19.17
2019-01-04T23:22:31.579Z,17.50
2019-01-04T23:25:29.427Z,16.43
2019-01-04T23:28:29.197Z,16.40
2019-01-04T23:31:19.654Z,18.97
2019-01-04T23:34:17.894Z,19.13
2019-01-04T23:37:12.625Z,17.47
2019-01-04T23:40:02.349Z,17.40
2019-01-04T23:42:50.624Z,18.77
2019-01-04T23:52:08.240Z,17.37
2019-01-04T23:54:56.317Z,17.20
2019-01-04T23:57:55.800Z,19.30
